Terminal Aerodrome Forecast
Issued by NWS

Home | Current Version | Previous Version | Text Only | Print | Product List | Glossary On
Versions: 1 2 3 4 5 6 7 8 9 10 11 12 13 14 15 16 17 18 19 20 21 22 23 24 25 26
000
FTAK31 PANC 101141
TAFAAQ
TAF
PAAQ 101141Z 1012/1112 VRB05KT P6SM -RA BKN060 OVC080
     FM101900 13015G22KT P6SM -RA SCT040 OVC060
     FM102100 13020G28KT P6SM -RA SCT040 OVC060
     FM110300 13012G20KT P6SM OVC060
     FM110900 05005KT P6SM -RA SCT040 OVC060=

USA.gov is the U.S. government's official web portal to all federal, state and local government web resources and services.